createdAt,value
2022-12-28T00:01:11.650Z,16.13
2022-12-28T00:03:38.259Z,18.50
2022-12-28T00:06:05.854Z,29.52
2022-12-28T00:08:32.578Z,22.67
2022-12-28T00:11:12.164Z,18.17
2022-12-28T00:13:45.726Z,12.85
2022-12-28T00:16:29.056Z,18.15
2022-12-28T00:18:58.073Z,22.75
2022-12-28T00:21:25.313Z,18.88
2022-12-28T00:23:52.982Z,19.80
2022-12-28T00:26:20.182Z,20.20
2022-12-28T00:28:47.926Z,16.02
2022-12-28T00:31:15.695Z,14.63
2022-12-28T00:33:42.805Z,14.52
2022-12-28T00:36:13.747Z,20.90
2022-12-28T00:38:42.204Z,20.15
2022-12-28T00:41:09.802Z,31.45
2022-12-28T00:43:36.910Z,18.52
2022-12-28T00:46:04.210Z,18.52
2022-12-28T00:48:31.877Z,22.17
2022-12-28T00:51:08.378Z,19.88
2022-12-28T00:53:35.398Z,21.55
2022-12-28T00:56:18.976Z,63.50
2022-12-28T00:58:48.737Z,19.20
2022-12-28T01:01:19.039Z,43.95
2022-12-28T01:03:46.385Z,28.25
2022-12-28T01:06:15.159Z,35.10
2022-12-28T01:08:42.615Z,19.30
2022-12-28T01:11:23.820Z,64.50
2022-12-28T01:13:52.683Z,19.05
2022-12-28T01:16:28.460Z,18.15
2022-12-28T01:18:57.809Z,18.50
2022-12-28T01:21:27.530Z,71.40
2022-12-28T01:23:56.188Z,20.00
2022-12-28T01:26:23.196Z,20.70
2022-12-28T01:28:50.272Z,15.80
2022-12-28T01:31:18.103Z,22.13
2022-12-28T01:33:45.090Z,15.63
2022-12-28T01:36:20.356Z,17.70
2022-12-28T01:38:48.266Z,17.85
2022-12-28T01:41:17.487Z,17.40
2022-12-28T01:43:48.393Z,19.38
2022-12-28T01:46:22.470Z,20.33
2022-12-28T01:49:10.637Z,17.63
2022-12-28T01:52:04.218Z,34.03
2022-12-28T01:54:39.395Z,33.97
2022-12-28T01:57:06.073Z,34.35
2022-12-28T01:59:37.323Z,30.10
2022-12-28T02:02:04.293Z,24.45
2022-12-28T02:04:31.140Z,26.33
2022-12-28T02:06:57.904Z,30.55
2022-12-28T02:09:33.669Z,20.48
2022-12-28T02:12:00.917Z,16.35
2022-12-28T02:14:27.875Z,17.05
2022-12-28T02:16:55.210Z,14.82
2022-12-28T02:19:33.041Z,19.73
2022-12-28T02:22:21.173Z,16.10
2022-12-28T02:25:13.985Z,20.70
2022-12-28T02:27:59.281Z,16.00
2022-12-28T02:30:25.942Z,17.00
2022-12-28T02:33:13.315Z,12.93
2022-12-28T02:35:54.263Z,14.40
2022-12-28T02:38:33.012Z,14.52
2022-12-28T02:41:03.835Z,14.40
2022-12-28T02:43:32.557Z,12.55
2022-12-28T02:46:35.139Z,13.05
2022-12-28T02:49:37.722Z,14.98
2022-12-28T02:52:25.270Z,14.75
2022-12-28T02:55:27.292Z,17.75
2022-12-28T02:58:13.361Z,18.25
2022-12-28T03:00:55.366Z,12.63
2022-12-28T03:03:45.974Z,15.68
2022-12-28T03:06:56.844Z,16.88
2022-12-28T03:09:38.016Z,31.77
2022-12-28T03:12:15.732Z,33.85
2022-12-28T03:14:54.094Z,38.70
2022-12-28T03:17:44.132Z,50.03
2022-12-28T03:20:40.101Z,53.50
2022-12-28T03:23:28.978Z,64.45
2022-12-28T03:26:17.636Z,65.93
2022-12-28T03:29:08.261Z,67.68
2022-12-28T03:31:38.890Z,59.97
2022-12-28T03:34:10.587Z,65.68
2022-12-28T03:37:10.532Z,44.33
2022-12-28T03:39:51.968Z,33.30
2022-12-28T03:42:52.655Z,37.47
2022-12-28T03:45:45.323Z,30.42
2022-12-28T03:48:15.936Z,16.70
2022-12-28T03:50:46.817Z,11.80
2022-12-28T03:53:23.034Z,20.15
2022-12-28T03:55:52.470Z,10.02
2022-12-28T03:58:21.856Z,13.57
2022-12-28T04:00:49.656Z,11.75
2022-12-28T04:03:17.350Z,13.73
2022-12-28T04:08:01.281Z,11.13
2022-12-28T04:10:28.263Z,13.30
2022-12-28T04:12:56.673Z,19.02
2022-12-28T04:15:37.945Z,18.77
2022-12-28T04:18:04.770Z,13.88
2022-12-28T04:20:32.044Z,13.40
2022-12-28T04:22:58.740Z,15.98
2022-12-28T04:25:26.299Z,13.27
2022-12-28T04:30:16.107Z,15.27
2022-12-28T04:32:42.752Z,16.75
2022-12-28T04:35:09.525Z,14.35
2022-12-28T04:37:44.311Z,13.00
2022-12-28T04:40:11.321Z,18.75
2022-12-28T04:42:37.812Z,19.92
2022-12-28T04:45:05.565Z,22.77
2022-12-28T04:47:32.054Z,23.42
2022-12-28T04:49:58.701Z,27.55
2022-12-28T04:52:25.362Z,28.95
2022-12-28T04:54:52.149Z,53.03
2022-12-28T04:57:18.662Z,78.72
2022-12-28T04:59:45.286Z,221.18
2022-12-28T05:02:11.984Z,294.45
2022-12-28T05:04:38.627Z,376.20
2022-12-28T05:07:05.147Z,99.15
2022-12-28T05:09:31.876Z,121.63
2022-12-28T05:11:58.360Z,115.70
2022-12-28T05:14:24.947Z,197.68
2022-12-28T05:16:52.166Z,117.55
2022-12-28T05:19:18.773Z,193.70
2022-12-28T05:21:45.325Z,391.88
2022-12-28T05:24:12.021Z,977.60
2022-12-28T05:26:38.560Z,314.90
2022-12-28T05:29:05.347Z,154.60
2022-12-28T05:31:31.911Z,66.22
2022-12-28T05:33:58.642Z,36.60
2022-12-28T05:36:26.945Z,38.70
2022-12-28T05:38:54.827Z,26.42
2022-12-28T05:41:24.353Z,20.50
2022-12-28T05:43:51.965Z,24.63
2022-12-28T05:46:22.032Z,137.40
2022-12-28T05:48:48.933Z,221.35
2022-12-28T05:51:18.308Z,467.75
2022-12-28T05:53:44.898Z,223.43
2022-12-28T05:56:20.961Z,374.13
2022-12-28T05:58:53.624Z,286.38
2022-12-28T06:01:23.003Z,384.13
2022-12-28T06:03:53.946Z,269.65
2022-12-28T06:06:21.231Z,328.77
2022-12-28T06:08:48.910Z,298.48
2022-12-28T06:13:36.205Z,70.03
2022-12-28T06:16:15.219Z,115.15
2022-12-28T06:18:42.383Z,69.30
2022-12-28T06:21:13.081Z,97.10
2022-12-28T06:23:40.385Z,109.75
2022-12-28T06:26:08.224Z,77.05
2022-12-28T06:28:38.227Z,42.85
2022-12-28T06:31:11.631Z,41.60
2022-12-28T06:33:38.696Z,39.35
2022-12-28T06:36:14.719Z,37.22
2022-12-28T06:38:46.846Z,39.40
2022-12-28T06:41:15.319Z,35.95
2022-12-28T06:43:43.495Z,26.05
2022-12-28T06:46:11.622Z,48.35
2022-12-28T06:48:39.277Z,141.35
2022-12-28T06:51:13.805Z,127.30
2022-12-28T06:53:40.797Z,43.90
2022-12-28T06:56:32.834Z,64.28
2022-12-28T06:59:03.771Z,31.50
2022-12-28T07:01:38.182Z,40.73
2022-12-28T07:04:06.797Z,27.10
2022-12-28T07:06:42.312Z,30.33
2022-12-28T07:09:13.711Z,85.30
2022-12-28T07:11:41.073Z,105.82
2022-12-28T07:14:07.620Z,108.15
2022-12-28T07:19:03.544Z,106.40
2022-12-28T07:21:36.207Z,105.65
2022-12-28T07:24:04.553Z,108.55
2022-12-28T07:26:34.490Z,105.70
2022-12-28T07:29:02.939Z,114.50
2022-12-28T07:31:35.742Z,94.90
2022-12-28T07:34:05.065Z,91.93
2022-12-28T07:36:32.960Z,105.97
2022-12-28T07:39:00.348Z,124.00
2022-12-28T07:41:29.753Z,123.28
2022-12-28T07:43:59.544Z,117.18
2022-12-28T07:46:31.154Z,157.05
2022-12-28T07:49:01.250Z,172.93
2022-12-28T07:51:33.146Z,185.18
2022-12-28T07:54:00.433Z,183.93
2022-12-28T07:56:29.167Z,162.10
2022-12-28T07:58:58.703Z,124.18
2022-12-28T08:01:27.883Z,118.32
2022-12-28T08:03:57.857Z,87.80
2022-12-28T08:06:26.005Z,79.97
2022-12-28T08:08:55.289Z,92.03
2022-12-28T08:11:27.513Z,140.07
2022-12-28T08:16:24.342Z,132.27
2022-12-28T08:18:51.042Z,196.65
2022-12-28T08:21:24.535Z,225.65
2022-12-28T08:23:51.908Z,231.93
2022-12-28T08:26:22.498Z,142.07
2022-12-28T08:28:50.920Z,138.00
2022-12-28T08:31:21.094Z,149.65
2022-12-28T08:33:48.239Z,180.38
2022-12-28T08:36:14.922Z,187.30
2022-12-28T08:38:43.118Z,178.57
2022-12-28T08:41:13.539Z,132.55
2022-12-28T08:43:40.512Z,117.53
2022-12-28T08:46:13.353Z,135.73
2022-12-28T08:48:41.464Z,139.55
2022-12-28T08:51:12.475Z,160.63
2022-12-28T08:53:40.646Z,195.70
2022-12-28T08:56:12.829Z,181.93
2022-12-28T09:01:21.913Z,152.73
2022-12-28T09:03:51.400Z,108.33
2022-12-28T09:06:21.492Z,86.40
2022-12-28T09:09:08.110Z,107.30
2022-12-28T09:11:36.473Z,100.72
2022-12-28T09:14:05.079Z,87.07
2022-12-28T09:16:31.703Z,98.55
2022-12-28T09:19:00.108Z,102.70
2022-12-28T09:21:29.865Z,128.50
2022-12-28T09:23:57.027Z,107.22
2022-12-28T09:26:29.176Z,94.88
2022-12-28T09:28:57.926Z,110.03
2022-12-28T09:31:27.546Z,104.70
2022-12-28T09:36:47.862Z,96.85
2022-12-28T09:39:18.194Z,94.45
2022-12-28T09:42:03.488Z,77.78
2022-12-28T09:44:39.971Z,79.10
2022-12-28T09:47:21.562Z,78.55
2022-12-28T09:50:13.314Z,69.80
2022-12-28T09:53:06.565Z,65.63
2022-12-28T09:55:35.255Z,68.55
2022-12-28T09:58:04.149Z,70.72
2022-12-28T10:00:45.298Z,63.88
2022-12-28T10:03:18.746Z,77.97
2022-12-28T10:05:45.991Z,78.60
2022-12-28T10:08:17.286Z,104.30
2022-12-28T10:10:48.627Z,86.13
2022-12-28T10:13:53.418Z,99.95
2022-12-28T10:16:20.404Z,87.18
2022-12-28T10:18:48.510Z,87.90
2022-12-28T10:21:18.491Z,88.07
2022-12-28T10:24:20.922Z,91.93
2022-12-28T10:26:35.291Z,107.85
2022-12-28T10:29:01.882Z,88.53
2022-12-28T10:31:38.514Z,65.75
2022-12-28T10:34:22.776Z,34.42
2022-12-28T10:36:50.692Z,27.70
2022-12-28T10:39:28.868Z,28.27
2022-12-28T10:41:58.184Z,23.08
2022-12-28T10:44:39.268Z,36.45
2022-12-28T10:47:18.203Z,64.47
2022-12-28T10:50:10.514Z,64.53
2022-12-28T10:52:39.631Z,63.47
2022-12-28T10:55:30.773Z,74.82
2022-12-28T10:58:29.178Z,103.10
2022-12-28T11:01:10.722Z,93.78
2022-12-28T11:03:40.035Z,94.22
2022-12-28T11:06:13.111Z,54.70
2022-12-28T11:08:41.606Z,22.55
2022-12-28T11:11:18.125Z,22.20
2022-12-28T11:13:53.460Z,24.45
2022-12-28T11:16:21.166Z,22.58
2022-12-28T11:18:47.958Z,21.90
2022-12-28T11:21:20.047Z,21.10
2022-12-28T11:23:49.228Z,19.30
2022-12-28T11:26:18.229Z,10.98
2022-12-28T11:28:48.301Z,10.88
2022-12-28T11:31:28.107Z,8.43
2022-12-28T11:33:58.883Z,9.60
2022-12-28T11:36:27.438Z,10.20
2022-12-28T11:38:56.390Z,8.27
2022-12-28T11:41:31.979Z,8.90
2022-12-28T11:44:04.484Z,14.40
2022-12-28T11:46:31.113Z,8.68
2022-12-28T11:49:03.831Z,11.38
2022-12-28T11:51:35.511Z,12.02
2022-12-28T11:54:38.672Z,9.35
2022-12-28T11:57:07.674Z,8.88
2022-12-28T11:59:35.768Z,8.43
2022-12-28T12:02:28.745Z,9.05
2022-12-28T12:04:55.340Z,14.30
2022-12-28T12:07:31.178Z,8.38
2022-12-28T12:10:44.545Z,6.88
2022-12-28T12:13:26.419Z,12.82
2022-12-28T12:16:06.923Z,15.15
2022-12-28T12:18:52.237Z,14.57
2022-12-28T12:21:39.655Z,13.35
2022-12-28T12:24:30.586Z,12.23
2022-12-28T12:27:13.476Z,11.95
2022-12-28T12:29:45.299Z,17.27
2022-12-28T12:34:55.216Z,12.80
2022-12-28T12:37:37.447Z,12.45
2022-12-28T12:40:10.130Z,14.15
2022-12-28T12:42:36.686Z,9.82
2022-12-28T12:45:36.291Z,12.32
2022-12-28T12:48:22.867Z,14.30
2022-12-28T12:50:59.192Z,13.82
2022-12-28T12:53:28.800Z,13.00
2022-12-28T12:56:30.648Z,12.73
2022-12-28T12:59:24.711Z,8.88
2022-12-28T13:02:40.148Z,13.20
2022-12-28T13:05:11.949Z,12.25
2022-12-28T13:07:40.045Z,19.38
2022-12-28T13:10:14.034Z,11.85
2022-12-28T13:12:41.114Z,14.45
2022-12-28T13:15:15.076Z,28.13
2022-12-28T13:18:42.976Z,64.80
2022-12-28T13:20:57.585Z,33.17
2022-12-28T13:23:26.497Z,35.17
2022-12-28T13:25:56.285Z,41.97
2022-12-28T13:28:28.691Z,66.60
2022-12-28T13:31:18.272Z,44.15
2022-12-28T13:34:15.703Z,43.25
2022-12-28T13:36:58.455Z,23.52
2022-12-28T13:39:30.468Z,13.82
2022-12-28T13:42:00.426Z,14.65
2022-12-28T13:44:36.236Z,13.70
2022-12-28T13:47:05.200Z,15.73
2022-12-28T13:49:36.938Z,12.80
2022-12-28T13:52:08.591Z,13.68
2022-12-28T13:54:38.844Z,13.93
2022-12-28T13:57:36.464Z,9.88
2022-12-28T13:59:55.737Z,12.95
2022-12-28T14:02:23.896Z,23.63
2022-12-28T14:04:54.068Z,19.98
2022-12-28T14:07:24.147Z,34.78
2022-12-28T14:09:51.650Z,11.57
2022-12-28T14:12:18.919Z,15.45
2022-12-28T14:14:47.892Z,85.15
2022-12-28T14:17:15.389Z,27.35
2022-12-28T14:19:42.970Z,23.05
2022-12-28T14:22:35.834Z,15.68
2022-12-28T14:25:22.412Z,14.02
2022-12-28T14:27:58.466Z,10.23
2022-12-28T14:30:27.832Z,27.70
2022-12-28T14:35:22.703Z,20.63
2022-12-28T14:37:56.921Z,36.60
2022-12-28T14:40:31.175Z,37.55
2022-12-28T14:43:03.067Z,37.42
2022-12-28T14:45:36.321Z,30.50
2022-12-28T14:48:32.731Z,13.82
2022-12-28T14:51:03.347Z,11.23
2022-12-28T14:53:31.271Z,16.73
2022-12-28T14:56:11.406Z,149.27
2022-12-28T14:58:54.750Z,100.47
2022-12-28T15:01:22.562Z,46.38
2022-12-28T15:04:05.369Z,81.40
2022-12-28T15:06:32.689Z,45.75
2022-12-28T15:08:59.930Z,41.17
2022-12-28T15:11:28.984Z,35.75
2022-12-28T15:13:57.436Z,27.60
2022-12-28T15:16:24.210Z,35.90
2022-12-28T15:18:50.873Z,19.02
2022-12-28T15:21:20.313Z,37.25
2022-12-28T15:23:53.995Z,35.45
2022-12-28T15:26:23.427Z,27.15
2022-12-28T15:28:50.541Z,42.20
2022-12-28T15:31:20.022Z,28.77
2022-12-28T15:36:24.931Z,89.00
2022-12-28T15:38:51.546Z,44.90
2022-12-28T15:43:36.347Z,207.20
2022-12-28T15:46:02.937Z,44.72
2022-12-28T15:48:32.566Z,68.60
2022-12-28T15:50:59.165Z,118.05
2022-12-28T15:53:25.727Z,25.75
2022-12-28T15:56:20.400Z,18.58
2022-12-28T15:58:47.058Z,14.85
2022-12-28T16:01:16.468Z,23.15
2022-12-28T16:03:43.212Z,37.42
2022-12-28T16:06:09.834Z,33.28
2022-12-28T16:08:37.763Z,38.97
2022-12-28T16:11:12.605Z,57.45
2022-12-28T16:13:39.459Z,44.60
2022-12-28T16:16:07.800Z,59.10
2022-12-28T16:18:34.933Z,68.40
2022-12-28T16:21:03.063Z,40.55
2022-12-28T16:23:32.022Z,28.70
2022-12-28T16:25:59.938Z,63.65
2022-12-28T16:28:27.324Z,38.45
2022-12-28T16:30:54.578Z,23.90
2022-12-28T16:33:22.002Z,21.35
2022-12-28T16:35:50.839Z,32.08
2022-12-28T16:38:22.999Z,34.88
2022-12-28T16:40:49.853Z,41.83
2022-12-28T16:43:19.280Z,49.88
2022-12-28T16:45:45.955Z,59.45
2022-12-28T16:48:15.105Z,80.55
2022-12-28T16:50:42.294Z,95.57
2022-12-28T16:53:09.235Z,97.97
2022-12-28T16:55:42.906Z,101.93
2022-12-28T16:58:09.951Z,68.65
2022-12-28T17:00:39.408Z,79.18
2022-12-28T17:03:06.114Z,70.72
2022-12-28T17:05:34.661Z,92.22
2022-12-28T17:08:02.182Z,110.80
2022-12-28T17:10:29.129Z,166.65
2022-12-28T17:12:55.787Z,67.75
2022-12-28T17:15:25.905Z,129.98
2022-12-28T17:17:52.518Z,115.70
2022-12-28T17:20:19.218Z,225.73
2022-12-28T17:22:45.842Z,113.53
2022-12-28T17:25:12.546Z,89.30
2022-12-28T17:27:39.197Z,154.10
2022-12-28T17:30:06.049Z,122.30
2022-12-28T17:32:33.400Z,286.95
2022-12-28T17:35:00.178Z,146.35
2022-12-28T17:37:26.859Z,86.03
2022-12-28T17:39:53.431Z,122.15
2022-12-28T17:42:20.102Z,57.78
2022-12-28T17:44:48.382Z,71.18
2022-12-28T17:47:15.195Z,69.90
2022-12-28T17:49:42.035Z,77.63
2022-12-28T17:52:08.620Z,73.70
2022-12-28T17:54:35.208Z,81.80
2022-12-28T17:57:01.970Z,150.80
2022-12-28T17:59:28.529Z,116.97
2022-12-28T18:01:55.657Z,165.25
2022-12-28T18:04:22.307Z,80.07
2022-12-28T18:06:48.962Z,151.73
2022-12-28T18:09:15.786Z,62.20
2022-12-28T18:11:42.351Z,209.27
2022-12-28T18:14:12.850Z,39.20
2022-12-28T18:16:39.892Z,124.07
2022-12-28T18:19:06.507Z,156.75
2022-12-28T18:21:33.163Z,110.85
2022-12-28T18:23:59.659Z,42.65
2022-12-28T18:26:27.013Z,54.40
2022-12-28T18:28:57.641Z,47.97
2022-12-28T18:31:25.258Z,37.97
2022-12-28T18:33:52.342Z,186.00
2022-12-28T18:36:22.176Z,44.22
2022-12-28T18:38:49.579Z,66.95
2022-12-28T18:41:20.605Z,206.75
2022-12-28T18:43:47.742Z,30.10
2022-12-28T18:46:14.725Z,299.15
2022-12-28T18:48:42.712Z,31.65
2022-12-28T18:51:16.897Z,41.83
2022-12-28T18:53:43.976Z,20.90
2022-12-28T18:56:14.081Z,75.72
2022-12-28T18:58:42.294Z,23.48
2022-12-28T19:01:39.701Z,70.10
2022-12-28T19:04:01.110Z,161.30
2022-12-28T19:06:29.125Z,26.55
2022-12-28T19:09:02.187Z,18.98
2022-12-28T19:11:29.251Z,20.20
2022-12-28T19:13:58.076Z,40.55
2022-12-28T19:16:31.046Z,28.48
2022-12-28T19:19:03.970Z,31.27
2022-12-28T19:21:38.366Z,51.28
2022-12-28T19:24:17.339Z,12.90
2022-12-28T19:26:45.614Z,87.53
2022-12-28T19:29:13.294Z,37.40
2022-12-28T19:31:43.000Z,24.67
2022-12-28T19:34:09.984Z,34.03
2022-12-28T19:36:36.723Z,32.58
2022-12-28T19:39:13.417Z,42.67
2022-12-28T19:41:43.180Z,40.58
2022-12-28T19:44:13.023Z,34.05
2022-12-28T19:46:47.504Z,36.58
2022-12-28T19:49:20.515Z,40.85
2022-12-28T19:51:57.326Z,97.75
2022-12-28T19:54:26.595Z,41.15
2022-12-28T19:56:56.119Z,61.58
2022-12-28T19:59:24.423Z,34.13
2022-12-28T20:02:03.616Z,35.58
2022-12-28T20:04:35.583Z,32.85
2022-12-28T20:09:29.331Z,30.77
2022-12-28T20:11:56.509Z,28.38
2022-12-28T20:14:26.068Z,21.33
2022-12-28T20:16:53.311Z,14.95
2022-12-28T20:19:22.620Z,17.05
2022-12-28T20:21:49.675Z,16.77
2022-12-28T20:24:21.834Z,13.02
2022-12-28T20:26:48.605Z,42.17
2022-12-28T20:29:17.044Z,68.38
2022-12-28T20:31:44.538Z,69.45
2022-12-28T20:34:11.738Z,65.22
2022-12-28T20:36:41.623Z,69.80
2022-12-28T20:39:08.429Z,72.28
2022-12-28T20:41:56.809Z,55.60
2022-12-28T20:44:26.481Z,63.05
2022-12-28T20:46:54.444Z,55.72
2022-12-28T20:49:23.071Z,108.40
2022-12-28T20:51:51.296Z,52.70
2022-12-28T20:54:19.757Z,70.20
2022-12-28T20:56:53.971Z,60.17
2022-12-28T20:59:26.006Z,57.88
2022-12-28T21:01:55.107Z,49.35
2022-12-28T21:04:24.476Z,51.42
2022-12-28T21:06:52.844Z,60.35
2022-12-28T21:09:19.872Z,50.92
2022-12-28T21:11:46.743Z,49.25
2022-12-28T21:14:13.825Z,45.00
2022-12-28T21:16:40.562Z,88.47
2022-12-28T21:19:07.116Z,49.28
2022-12-28T21:21:33.795Z,136.38
2022-12-28T21:24:02.703Z,47.80
2022-12-28T21:26:29.395Z,49.28
2022-12-28T21:28:55.922Z,57.75
2022-12-28T21:31:23.117Z,49.55
2022-12-28T21:33:49.678Z,41.83
2022-12-28T21:36:19.099Z,130.10
2022-12-28T21:38:48.192Z,158.90
2022-12-28T21:41:37.755Z,36.28
2022-12-28T21:44:06.816Z,104.63
2022-12-28T21:46:34.315Z,25.98
2022-12-28T21:49:03.398Z,34.45
2022-12-28T21:51:35.368Z,27.52
2022-12-28T21:54:13.578Z,36.72
2022-12-28T21:56:41.955Z,32.95
2022-12-28T21:59:09.403Z,55.30
2022-12-28T22:04:24.854Z,135.70
2022-12-28T22:06:51.445Z,122.72
2022-12-28T22:09:36.491Z,135.98
2022-12-28T22:12:21.783Z,141.60
2022-12-28T22:14:48.421Z,132.73
2022-12-28T22:17:15.022Z,125.20
2022-12-28T22:19:41.710Z,115.32
2022-12-28T22:22:08.323Z,119.45
2022-12-28T22:24:34.915Z,99.07
2022-12-28T22:27:01.450Z,85.88
2022-12-28T22:29:28.100Z,83.32
2022-12-28T22:31:54.659Z,64.18
2022-12-28T22:34:21.297Z,42.75
2022-12-28T22:36:47.899Z,46.38
2022-12-28T22:39:14.569Z,49.50
2022-12-28T22:41:41.109Z,391.35
2022-12-28T22:44:09.884Z,61.25
2022-12-28T22:46:39.498Z,753.80
2022-12-28T22:49:06.216Z,1038.38
2022-12-28T22:53:45.061Z,323.75
2022-12-28T22:56:19.944Z,808.92
2022-12-28T22:58:48.068Z,1281.05
2022-12-28T23:01:17.783Z,1032.30
2022-12-28T23:03:45.974Z,343.88
2022-12-28T23:06:14.792Z,240.20
2022-12-28T23:08:41.711Z,23.48
2022-12-28T23:11:31.488Z,23.38
2022-12-28T23:14:20.929Z,18.75
2022-12-28T23:16:48.991Z,21.40
2022-12-28T23:19:34.950Z,17.88
2022-12-28T23:22:22.856Z,62.65
2022-12-28T23:25:15.542Z,39.67
2022-12-28T23:27:44.431Z,24.50
2022-12-28T23:30:19.895Z,23.35
2022-12-28T23:32:48.018Z,65.45
2022-12-28T23:35:16.620Z,15.52
2022-12-28T23:37:43.174Z,24.00
2022-12-28T23:40:12.244Z,14.75
2022-12-28T23:42:40.757Z,46.67
2022-12-28T23:45:09.480Z,12.18
2022-12-28T23:47:36.833Z,16.55
2022-12-28T23:50:04.274Z,16.15
2022-12-28T23:52:31.336Z,9.07
2022-12-28T23:54:57.915Z,9.52
2022-12-28T23:57:24.703Z,14.32
2022-12-28T23:59:51.420Z,10.50
